createdAt,value
2023-02-09T00:00:22.280Z,-4.15
2023-02-09T00:02:02.024Z,-4.19
2023-02-09T00:03:41.775Z,-4.21
2023-02-09T00:05:21.542Z,-4.22
2023-02-09T00:07:01.398Z,-4.27
2023-02-09T00:08:41.092Z,-4.28
2023-02-09T00:10:20.824Z,-4.27
2023-02-09T00:12:00.593Z,-4.27
2023-02-09T00:13:40.363Z,-4.27
2023-02-09T00:15:20.184Z,-4.3
2023-02-09T00:16:59.883Z,-4.28
2023-02-09T00:18:39.660Z,-4.33
2023-02-09T00:20:19.412Z,-4.33
2023-02-09T00:21:59.178Z,-4.35
2023-02-09T00:23:38.945Z,-4.35
2023-02-09T00:25:18.714Z,-4.37
2023-02-09T00:26:58.468Z,-4.4
2023-02-09T00:28:38.238Z,-4.46
2023-02-09T00:30:17.981Z,-4.43
2023-02-09T00:31:57.770Z,-4.44
2023-02-09T00:33:37.531Z,-4.44
2023-02-09T00:35:17.284Z,-4.47
2023-02-09T00:36:57.049Z,-4.47
2023-02-09T00:38:36.809Z,-4.48
2023-02-09T00:40:16.589Z,-4.52
2023-02-09T00:41:56.338Z,-4.5
2023-02-09T00:43:36.110Z,-4.52
2023-02-09T00:45:15.868Z,-4.52
2023-02-09T00:46:55.634Z,-4.58
2023-02-09T00:48:35.401Z,-4.56
2023-02-09T00:50:15.154Z,-4.58
2023-02-09T00:51:54.921Z,-4.58
2023-02-09T00:53:34.694Z,-4.6
2023-02-09T00:55:14.467Z,-4.61
2023-02-09T00:56:54.212Z,-4.62
2023-02-09T00:58:33.973Z,-4.65
2023-02-09T01:00:13.740Z,-4.62
2023-02-09T01:01:53.503Z,-4.68
2023-02-09T01:03:33.277Z,-4.71
2023-02-09T01:05:13.041Z,-4.71
2023-02-09T01:06:52.794Z,-4.73
2023-02-09T01:08:32.552Z,-4.72
2023-02-09T01:10:12.333Z,-4.78
2023-02-09T01:11:52.079Z,-4.75
2023-02-09T01:13:31.866Z,-4.78
2023-02-09T01:15:11.612Z,-4.78
2023-02-09T01:16:51.377Z,-4.77
2023-02-09T01:18:31.141Z,-4.81
2023-02-09T01:20:10.911Z,-4.86
2023-02-09T01:21:50.682Z,-4.86
2023-02-09T01:23:30.432Z,-4.87
2023-02-09T01:25:10.212Z,-4.92
2023-02-09T01:26:49.961Z,-4.91
2023-02-09T01:28:29.727Z,-4.92
2023-02-09T01:30:09.492Z,-4.94
2023-02-09T01:31:49.255Z,-4.96
2023-02-09T01:33:29.016Z,-4.96
2023-02-09T01:35:08.782Z,-5.02
2023-02-09T01:36:48.541Z,-5.02
2023-02-09T01:38:28.326Z,-5.02
2023-02-09T01:40:08.062Z,-5.02
2023-02-09T01:41:47.844Z,-5.05
2023-02-09T01:43:27.604Z,-5.06
2023-02-09T01:45:07.367Z,-5.08
2023-02-09T01:46:47.126Z,-5.11
2023-02-09T01:48:26.894Z,-5.11
2023-02-09T01:50:06.657Z,-5.09
2023-02-09T01:51:46.421Z,-5.1
2023-02-09T01:53:26.188Z,-5.1
2023-02-09T01:55:05.940Z,-5.11
2023-02-09T01:56:45.717Z,-5.11
2023-02-09T01:58:25.469Z,-5.15
2023-02-09T02:00:05.313Z,-5.15
2023-02-09T02:01:45.003Z,-5.18
2023-02-09T02:03:24.778Z,-5.18
2023-02-09T02:05:04.529Z,-5.25
2023-02-09T02:06:44.335Z,-5.21
2023-02-09T02:08:24.073Z,-5.25
2023-02-09T02:10:03.828Z,-5.28
2023-02-09T02:11:43.579Z,-5.27
2023-02-09T02:13:23.348Z,-5.28
2023-02-09T02:15:03.123Z,-5.33
2023-02-09T02:16:42.872Z,-5.34
2023-02-09T02:18:22.638Z,-5.35
2023-02-09T02:20:02.389Z,-5.34
2023-02-09T02:21:42.173Z,-5.35
2023-02-09T02:23:21.928Z,-5.37
2023-02-09T02:25:01.683Z,-5.37
2023-02-09T02:26:41.464Z,-5.42
2023-02-09T02:28:21.223Z,-5.4
2023-02-09T02:30:01.004Z,-5.43
2023-02-09T02:31:40.755Z,-5.44
2023-02-09T02:33:20.524Z,-5.46
2023-02-09T02:35:00.287Z,-5.44
2023-02-09T02:36:40.055Z,-5.47
2023-02-09T02:38:19.802Z,-5.49
2023-02-09T02:39:59.559Z,-5.53
2023-02-09T02:41:39.308Z,-5.52
2023-02-09T02:43:19.091Z,-5.54
2023-02-09T02:44:58.872Z,-5.54
2023-02-09T02:46:38.631Z,-5.55
2023-02-09T02:48:18.420Z,-5.56
2023-02-09T02:49:58.153Z,-5.6
2023-02-09T02:51:37.909Z,-5.62
2023-02-09T02:53:17.677Z,-5.61
2023-02-09T02:54:57.443Z,-5.62
2023-02-09T02:56:37.215Z,-5.6
2023-02-09T02:58:16.970Z,-5.65
2023-02-09T02:59:56.799Z,-5.65
2023-02-09T03:01:36.515Z,-5.63
2023-02-09T03:03:16.267Z,-5.66
2023-02-09T03:04:56.079Z,-5.67
2023-02-09T03:06:35.807Z,-5.68
2023-02-09T03:08:15.564Z,-5.71
2023-02-09T03:09:55.329Z,-5.71
2023-02-09T03:11:35.079Z,-5.71
2023-02-09T03:13:14.853Z,-5.68
2023-02-09T03:14:54.613Z,-5.72
2023-02-09T03:16:34.380Z,-5.71
2023-02-09T03:18:14.152Z,-5.71
2023-02-09T03:19:53.911Z,-5.71
2023-02-09T03:21:33.667Z,-5.71
2023-02-09T03:23:13.424Z,-5.72
2023-02-09T03:24:53.195Z,-5.72
2023-02-09T03:26:32.988Z,-5.72
2023-02-09T03:28:12.718Z,-5.73
2023-02-09T03:29:52.489Z,-5.75
2023-02-09T03:31:32.245Z,-5.77
2023-02-09T03:33:12.011Z,-5.77
2023-02-09T03:34:51.777Z,-5.78
2023-02-09T03:36:31.597Z,-5.8
2023-02-09T03:38:11.308Z,-5.8
2023-02-09T03:39:51.072Z,-5.79
2023-02-09T03:41:30.902Z,-5.79
2023-02-09T03:43:10.594Z,-5.83
2023-02-09T03:44:50.342Z,-5.8
2023-02-09T03:46:30.120Z,-5.83
2023-02-09T03:48:09.899Z,-5.84
2023-02-09T03:49:49.661Z,-5.84
2023-02-09T03:51:29.453Z,-5.86
2023-02-09T03:53:09.183Z,-5.86
2023-02-09T03:54:48.947Z,-5.91
2023-02-09T03:56:28.725Z,-5.9
2023-02-09T03:58:08.465Z,-5.93
2023-02-09T03:59:48.237Z,-5.92
2023-02-09T04:01:28.071Z,-5.93
2023-02-09T04:03:07.770Z,-5.96
2023-02-09T04:04:47.517Z,-5.97
2023-02-09T04:06:27.298Z,-5.96
2023-02-09T04:08:07.079Z,-5.99
2023-02-09T04:09:46.813Z,-6
2023-02-09T04:11:26.582Z,-5.97
2023-02-09T04:13:06.344Z,-5.99
2023-02-09T04:14:46.122Z,-6
2023-02-09T04:16:25.863Z,-6.02
2023-02-09T04:18:05.621Z,-6
2023-02-09T04:19:45.413Z,-6.02
2023-02-09T04:21:25.161Z,-6.03
2023-02-09T04:23:04.923Z,-6.02
2023-02-09T04:24:44.692Z,-6.04
2023-02-09T04:26:24.470Z,-6.04
2023-02-09T04:28:04.224Z,-6.04
2023-02-09T04:29:44.000Z,-6.05
2023-02-09T04:31:23.737Z,-6.05
2023-02-09T04:33:03.515Z,-6.06
2023-02-09T04:34:43.311Z,-6.08
2023-02-09T04:36:23.042Z,-6.08
2023-02-09T04:38:02.795Z,-6.05
2023-02-09T04:39:42.565Z,-6.09
2023-02-09T04:41:22.353Z,-6.13
2023-02-09T04:43:02.098Z,-6.12
2023-02-09T04:44:41.870Z,-6.1
2023-02-09T04:46:21.642Z,-6.13
2023-02-09T04:48:01.396Z,-6.16
2023-02-09T04:49:41.136Z,-6.15
2023-02-09T04:51:20.902Z,-6.15
2023-02-09T04:53:00.680Z,-6.16
2023-02-09T04:54:40.442Z,-6.18
2023-02-09T04:56:20.190Z,-6.18
2023-02-09T04:57:59.975Z,-6.21
2023-02-09T04:59:39.718Z,-6.23
2023-02-09T05:01:19.494Z,-6.24
2023-02-09T05:02:59.268Z,-6.24
2023-02-09T05:04:39.013Z,-6.24
2023-02-09T05:06:18.784Z,-6.25
2023-02-09T05:07:58.541Z,-6.25
2023-02-09T05:09:38.304Z,-6.25
2023-02-09T05:11:18.085Z,-6.22
2023-02-09T05:12:57.843Z,-6.23
2023-02-09T05:14:37.618Z,-6.24
2023-02-09T05:16:17.375Z,-6.19
2023-02-09T05:17:57.137Z,-6.18
2023-02-09T05:19:36.886Z,-6.16
2023-02-09T05:21:16.678Z,-6.18
2023-02-09T05:22:56.422Z,-6.19
2023-02-09T05:24:36.181Z,-6.21
2023-02-09T05:26:15.966Z,-6.18
2023-02-09T05:27:56.090Z,-6.16
2023-02-09T05:29:35.481Z,-6.17
2023-02-09T05:31:15.276Z,-6.17
2023-02-09T05:32:55.003Z,-6.15
2023-02-09T05:34:34.783Z,-6.17
2023-02-09T05:36:14.528Z,-6.18
2023-02-09T05:37:54.423Z,-6.16
2023-02-09T05:39:34.060Z,-6.15
2023-02-09T05:41:13.836Z,-6.17
2023-02-09T05:42:53.593Z,-6.18
2023-02-09T05:44:33.353Z,-6.21
2023-02-09T05:46:13.115Z,-6.17
2023-02-09T05:47:52.874Z,-6.18
2023-02-09T05:49:32.657Z,-6.19
2023-02-09T05:51:12.424Z,-6.19
2023-02-09T05:52:52.170Z,-6.19
2023-02-09T05:54:31.930Z,-6.21
2023-02-09T05:56:11.705Z,-6.23
2023-02-09T05:57:51.458Z,-6.24
2023-02-09T05:59:31.227Z,-6.24
2023-02-09T06:01:10.997Z,-6.27
2023-02-09T06:02:50.760Z,-6.28
2023-02-09T06:04:30.531Z,-6.28
2023-02-09T06:06:10.284Z,-6.33
2023-02-09T06:07:50.037Z,-6.34
2023-02-09T06:09:29.799Z,-6.33
2023-02-09T06:11:09.579Z,-6.33
2023-02-09T06:12:49.329Z,-6.33
2023-02-09T06:14:29.093Z,-6.35
2023-02-09T06:16:08.856Z,-6.33
2023-02-09T06:17:48.699Z,-6.34
2023-02-09T06:19:28.384Z,-6.36
2023-02-09T06:21:08.160Z,-6.36
2023-02-09T06:22:47.919Z,-6.37
2023-02-09T06:24:27.669Z,-6.41
2023-02-09T06:26:07.432Z,-6.4
2023-02-09T06:27:47.201Z,-6.4
2023-02-09T06:29:26.981Z,-6.4
2023-02-09T06:31:06.732Z,-6.36
2023-02-09T06:32:46.494Z,-6.38
2023-02-09T06:34:26.272Z,-6.4
2023-02-09T06:36:06.028Z,-6.37
2023-02-09T06:37:45.796Z,-6.38
2023-02-09T06:39:25.553Z,-6.42
2023-02-09T06:41:05.326Z,-6.42
2023-02-09T06:42:45.113Z,-6.41
2023-02-09T06:44:24.865Z,-6.44
2023-02-09T06:46:04.612Z,-6.42
2023-02-09T06:47:44.388Z,-6.43
2023-02-09T06:49:24.141Z,-6.38
2023-02-09T06:51:03.921Z,-6.46
2023-02-09T06:52:43.691Z,-6.4
2023-02-09T06:54:23.425Z,-6.4
2023-02-09T06:56:03.197Z,-6.4
2023-02-09T06:57:42.952Z,-6.38
2023-02-09T06:59:22.732Z,-6.4
2023-02-09T07:01:02.480Z,-6.4
2023-02-09T07:02:42.251Z,-6.34
2023-02-09T07:04:22.030Z,-6.31
2023-02-09T07:06:01.774Z,-6.33
2023-02-09T07:07:41.543Z,-6.27
2023-02-09T07:09:21.322Z,-6.31
2023-02-09T07:11:01.070Z,-6.25
2023-02-09T07:12:40.823Z,-6.21
2023-02-09T07:14:20.628Z,-6.22
2023-02-09T07:16:00.376Z,-6.22
2023-02-09T07:17:40.129Z,-6.15
2023-02-09T07:19:19.883Z,-6.11
2023-02-09T07:20:59.651Z,-6.08
2023-02-09T07:22:39.411Z,-6.08
2023-02-09T07:24:19.184Z,-6.04
2023-02-09T07:25:58.965Z,-5.99
2023-02-09T07:27:38.720Z,-5.93
2023-02-09T07:29:18.472Z,-5.85
2023-02-09T07:30:58.257Z,-5.65
2023-02-09T07:32:38.007Z,-5.47
2023-02-09T07:34:17.786Z,-5.46
2023-02-09T07:35:57.551Z,-5.4
2023-02-09T07:37:37.308Z,-5.41
2023-02-09T07:39:17.081Z,-5.38
2023-02-09T07:40:56.847Z,-5.38
2023-02-09T07:42:36.623Z,-5.38
2023-02-09T07:44:16.384Z,-5.36
2023-02-09T07:45:56.152Z,-5.35
2023-02-09T07:47:35.919Z,-5.35
2023-02-09T07:49:15.690Z,-5.28
2023-02-09T07:50:55.455Z,-5.28
2023-02-09T07:52:35.213Z,-5.27
2023-02-09T07:54:14.987Z,-5.22
2023-02-09T07:55:54.754Z,-5.24
2023-02-09T07:57:34.528Z,-5.18
2023-02-09T07:59:14.288Z,-5.16
2023-02-09T08:00:54.047Z,-5.13
2023-02-09T08:02:33.842Z,-5.13
2023-02-09T08:04:13.586Z,-5.08
2023-02-09T08:05:53.345Z,-5.03
2023-02-09T08:07:33.118Z,-4.96
2023-02-09T08:09:12.901Z,-4.94
2023-02-09T08:10:52.657Z,-4.87
2023-02-09T08:12:32.412Z,-4.85
2023-02-09T08:14:12.210Z,-4.81
2023-02-09T08:15:51.953Z,-4.75
2023-02-09T08:17:31.719Z,-4.74
2023-02-09T08:19:11.480Z,-4.66
2023-02-09T08:20:51.240Z,-4.65
2023-02-09T08:22:31.010Z,-4.59
2023-02-09T08:24:10.799Z,-4.55
2023-02-09T08:25:50.564Z,-4.49
2023-02-09T08:27:30.312Z,-4.44
2023-02-09T08:29:10.066Z,-4.4
2023-02-09T08:30:49.840Z,-4.35
2023-02-09T08:32:29.607Z,-4.33
2023-02-09T08:34:09.393Z,-4.24
2023-02-09T08:35:49.181Z,-4.19
2023-02-09T08:37:28.894Z,-4.15
2023-02-09T08:39:08.663Z,-4.12
2023-02-09T08:40:48.428Z,-4.04
2023-02-09T08:42:28.201Z,-4.04
2023-02-09T08:44:07.961Z,-3.93
2023-02-09T08:45:47.721Z,-3.88
2023-02-09T08:47:27.522Z,-3.85
2023-02-09T08:49:07.253Z,-3.77
2023-02-09T08:50:47.009Z,-3.74
2023-02-09T08:52:26.792Z,-3.71
2023-02-09T08:54:06.560Z,-3.63
2023-02-09T08:55:46.313Z,-3.65
2023-02-09T08:57:26.080Z,-3.52
2023-02-09T08:59:05.873Z,-3.49
2023-02-09T09:00:45.605Z,-3.42
2023-02-09T09:02:25.393Z,-3.38
2023-02-09T09:04:05.157Z,-3.33
2023-02-09T09:05:44.933Z,-3.25
2023-02-09T09:07:24.906Z,-3.21
2023-02-09T09:09:04.443Z,-3.17
2023-02-09T09:10:44.204Z,-3.12
2023-02-09T09:12:23.976Z,-3.08
2023-02-09T09:14:03.743Z,-2.99
2023-02-09T09:15:43.514Z,-2.96
2023-02-09T09:17:23.286Z,-2.88
2023-02-09T09:19:03.055Z,-2.86
2023-02-09T09:20:42.818Z,-2.83
2023-02-09T09:22:22.593Z,-2.78
2023-02-09T09:24:02.365Z,-2.71
2023-02-09T09:25:42.153Z,-2.68
2023-02-09T09:27:21.879Z,-2.62
2023-02-09T09:29:01.635Z,-2.58
2023-02-09T09:30:41.400Z,-2.54
2023-02-09T09:32:21.156Z,-2.49
2023-02-09T09:34:00.931Z,-2.46
2023-02-09T09:35:40.678Z,-2.38
2023-02-09T09:37:20.457Z,-2.36
2023-02-09T09:39:00.220Z,-2.3
2023-02-09T09:40:40.002Z,-2.23
2023-02-09T09:42:19.777Z,-2.18
2023-02-09T09:43:59.525Z,-2.13
2023-02-09T09:45:39.273Z,-2.04
2023-02-09T09:47:19.050Z,-2
2023-02-09T09:48:58.804Z,-1.96
2023-02-09T09:50:38.558Z,-1.91
2023-02-09T09:52:18.402Z,-1.84
2023-02-09T09:53:58.127Z,-1.8
2023-02-09T09:55:37.864Z,-1.78
2023-02-09T09:57:17.631Z,-1.73
2023-02-09T09:58:57.409Z,-1.71
2023-02-09T10:00:37.193Z,-1.63
2023-02-09T10:02:16.931Z,-1.61
2023-02-09T10:03:56.690Z,-1.6
2023-02-09T10:05:36.442Z,-1.55
2023-02-09T10:07:16.283Z,-1.53
2023-02-09T10:08:55.979Z,-1.49
2023-02-09T10:10:35.735Z,-1.44
2023-02-09T10:12:15.511Z,-1.38
2023-02-09T10:13:55.277Z,-1.37
2023-02-09T10:15:35.118Z,-1.33
2023-02-09T10:17:14.817Z,-1.3
2023-02-09T10:18:54.569Z,-1.24
2023-02-09T10:20:34.344Z,-1.19
2023-02-09T10:22:14.151Z,-1.12
2023-02-09T10:23:53.876Z,-1.08
2023-02-09T10:25:33.618Z,-1.04
2023-02-09T10:27:13.375Z,-1.02
2023-02-09T10:28:53.152Z,-0.94
2023-02-09T10:30:32.923Z,-0.9
2023-02-09T10:32:12.681Z,-0.88
2023-02-09T10:33:52.637Z,-0.84
2023-02-09T10:35:32.194Z,-0.77
2023-02-09T10:37:11.957Z,-0.72
2023-02-09T10:38:51.733Z,-0.69
2023-02-09T10:40:31.480Z,-0.67
2023-02-09T10:42:11.274Z,-0.6
2023-02-09T10:43:51.028Z,-0.6
2023-02-09T10:45:30.790Z,-0.49
2023-02-09T10:47:10.542Z,-0.5
2023-02-09T10:48:50.314Z,-0.46
2023-02-09T10:50:30.107Z,-0.43
2023-02-09T10:52:09.863Z,-0.36
2023-02-09T10:53:49.609Z,-0.31
2023-02-09T10:55:29.372Z,-0.27
2023-02-09T10:57:09.149Z,-0.22
2023-02-09T10:58:48.903Z,-0.19
2023-02-09T11:00:28.697Z,-0.15
2023-02-09T11:02:08.421Z,-0.11
2023-02-09T11:03:48.211Z,-0.09
2023-02-09T11:05:27.940Z,-0.03
2023-02-09T11:07:07.733Z,0.02
2023-02-09T11:08:47.480Z,0.04
2023-02-09T11:10:27.233Z,0.1
2023-02-09T11:12:07.045Z,0.14
2023-02-09T11:13:46.775Z,0.18
2023-02-09T11:15:26.547Z,0.22
2023-02-09T11:17:06.300Z,0.27
2023-02-09T11:18:46.072Z,0.33
2023-02-09T11:20:25.826Z,0.36
2023-02-09T11:22:05.623Z,0.43
2023-02-09T11:23:45.365Z,0.46
2023-02-09T11:25:25.145Z,0.54
2023-02-09T11:27:04.891Z,0.57
2023-02-09T11:28:44.654Z,0.65
2023-02-09T11:30:24.403Z,0.63
2023-02-09T11:32:04.201Z,0.7
2023-02-09T11:33:44.018Z,0.75
2023-02-09T11:35:23.696Z,0.77
2023-02-09T11:37:03.466Z,0.82
2023-02-09T11:38:43.226Z,0.85
2023-02-09T11:40:22.999Z,0.89
2023-02-09T11:42:02.794Z,0.95
2023-02-09T11:43:42.536Z,0.94
2023-02-09T11:45:22.293Z,0.96
2023-02-09T11:47:02.055Z,1.01
2023-02-09T11:48:41.868Z,1
2023-02-09T11:50:21.586Z,1.04
2023-02-09T11:52:01.348Z,1.09
2023-02-09T11:53:41.120Z,1.1
2023-02-09T11:55:20.868Z,1.16
2023-02-09T11:57:00.645Z,1.21
2023-02-09T11:58:40.391Z,1.23
2023-02-09T12:00:20.172Z,1.27
2023-02-09T12:01:59.931Z,1.28
2023-02-09T12:03:39.682Z,1.35
2023-02-09T12:05:19.452Z,1.4
2023-02-09T12:06:59.207Z,1.48
2023-02-09T12:08:39.060Z,1.52
2023-02-09T12:10:18.749Z,1.57
2023-02-09T12:11:58.571Z,1.58
2023-02-09T12:13:38.308Z,1.62
2023-02-09T12:15:18.036Z,1.66
2023-02-09T12:16:57.802Z,1.73
2023-02-09T12:18:37.586Z,1.77
2023-02-09T12:20:17.332Z,1.8
2023-02-09T12:21:57.102Z,1.82
2023-02-09T12:23:36.879Z,1.88
2023-02-09T12:25:16.623Z,1.91
2023-02-09T12:26:56.394Z,1.9
2023-02-09T12:28:36.207Z,1.93
2023-02-09T12:30:15.911Z,2.01
2023-02-09T12:31:55.695Z,1.99
2023-02-09T12:33:35.456Z,1.98
2023-02-09T12:35:15.196Z,2.04
2023-02-09T12:36:54.973Z,2.07
2023-02-09T12:38:34.728Z,2.08
2023-02-09T12:40:14.494Z,2.1
2023-02-09T12:41:54.265Z,2.08
2023-02-09T12:43:34.015Z,2.08
2023-02-09T12:45:13.797Z,2.07
2023-02-09T12:46:53.554Z,2.08
2023-02-09T12:48:33.306Z,2.09
2023-02-09T12:50:13.155Z,2.1
2023-02-09T12:51:52.839Z,2.11
2023-02-09T12:53:32.599Z,2.13
2023-02-09T12:55:12.383Z,2.11
2023-02-09T12:56:52.124Z,2.11
2023-02-09T12:58:31.913Z,2.16
2023-02-09T13:00:11.662Z,2.19
2023-02-09T13:01:51.426Z,2.21
2023-02-09T13:03:31.247Z,2.25
2023-02-09T13:06:50.703Z,2.29
2023-02-09T13:08:30.483Z,2.33
2023-02-09T13:10:10.250Z,2.4
2023-02-09T13:11:50.056Z,2.47
2023-02-09T13:13:29.763Z,2.53
2023-02-09T13:15:09.557Z,2.58
2023-02-09T13:16:49.301Z,2.6
2023-02-09T13:18:29.061Z,2.65
2023-02-09T13:20:08.839Z,2.71
2023-02-09T13:21:48.769Z,2.74
2023-02-09T13:23:28.354Z,2.8
2023-02-09T13:25:08.218Z,2.82
2023-02-09T13:26:47.960Z,2.85
2023-02-09T13:28:27.670Z,2.88
2023-02-09T13:30:07.401Z,2.92
2023-02-09T13:31:47.170Z,2.93
2023-02-09T13:33:26.946Z,2.96
2023-02-09T13:35:06.838Z,3
2023-02-09T13:36:46.469Z,3.06
2023-02-09T13:38:28.204Z,3.04
2023-02-09T13:40:06.016Z,3.03
2023-02-09T13:43:25.613Z,3.02
2023-02-09T13:45:05.308Z,3.01
2023-02-09T13:46:45.060Z,3.02
2023-02-09T13:48:24.817Z,3.03
2023-02-09T13:50:04.589Z,3.05
2023-02-09T13:51:44.364Z,3.06
2023-02-09T13:53:24.121Z,3.06
2023-02-09T13:55:03.860Z,3.04
2023-02-09T13:56:43.671Z,3.05
2023-02-09T13:58:23.396Z,3.07
2023-02-09T14:00:03.160Z,3.1
2023-02-09T14:01:42.921Z,3.09
2023-02-09T14:03:22.681Z,3.1
2023-02-09T14:05:02.446Z,3.13
2023-02-09T14:06:42.208Z,3.12
2023-02-09T14:08:21.971Z,3.19
2023-02-09T14:10:01.749Z,3.1
2023-02-09T14:11:41.506Z,3.14
2023-02-09T14:13:21.254Z,3.11
2023-02-09T14:15:01.023Z,3.07
2023-02-09T14:16:40.799Z,3.05
2023-02-09T14:18:20.570Z,3.05
2023-02-09T14:20:00.485Z,3.01
2023-02-09T14:21:40.259Z,2.98
2023-02-09T14:23:19.837Z,2.99
2023-02-09T14:24:59.618Z,2.99
2023-02-09T14:26:39.367Z,3
2023-02-09T14:28:19.137Z,2.98
2023-02-09T14:29:58.910Z,2.97
2023-02-09T14:31:38.677Z,2.99
2023-02-09T14:33:18.434Z,2.99
2023-02-09T14:34:58.177Z,2.99
2023-02-09T14:36:37.998Z,2.98
2023-02-09T14:38:17.740Z,2.95
2023-02-09T14:39:57.475Z,2.92
2023-02-09T14:41:37.240Z,2.92
2023-02-09T14:43:17.016Z,2.92
2023-02-09T14:44:56.768Z,2.91
2023-02-09T14:46:36.548Z,2.89
2023-02-09T14:48:16.303Z,2.86
2023-02-09T14:49:56.076Z,2.83
2023-02-09T14:51:36.008Z,2.8
2023-02-09T14:53:15.618Z,2.8
2023-02-09T14:54:55.442Z,2.77
2023-02-09T14:56:35.200Z,2.76
2023-02-09T14:58:14.902Z,2.74
2023-02-09T14:59:54.722Z,2.7
2023-02-09T15:01:34.498Z,2.69
2023-02-09T15:03:14.177Z,2.67
2023-02-09T15:04:53.969Z,2.66
2023-02-09T15:06:33.725Z,2.63
2023-02-09T15:08:13.557Z,2.58
2023-02-09T15:09:53.248Z,2.59
2023-02-09T15:11:33.013Z,2.55
2023-02-09T15:13:12.767Z,2.53
2023-02-09T15:14:52.541Z,2.5
2023-02-09T15:16:32.330Z,2.5
2023-02-09T15:18:12.184Z,2.42
2023-02-09T15:19:51.862Z,2.46
2023-02-09T15:21:31.592Z,2.43
2023-02-09T15:23:11.345Z,2.4
2023-02-09T15:24:51.191Z,2.38
2023-02-09T15:26:30.864Z,2.38
2023-02-09T15:28:10.652Z,2.33
2023-02-09T15:29:50.400Z,2.31
2023-02-09T15:31:30.159Z,2.28
2023-02-09T15:33:09.949Z,2.26
2023-02-09T15:34:49.747Z,2.23
2023-02-09T15:36:29.470Z,2.24
2023-02-09T15:38:09.245Z,2.17
2023-02-09T15:39:48.972Z,2.17
2023-02-09T15:41:28.763Z,2.11
2023-02-09T15:43:08.539Z,2.13
2023-02-09T15:44:48.273Z,2.06
2023-02-09T15:46:28.102Z,2.03
2023-02-09T15:48:07.797Z,2
2023-02-09T15:49:47.555Z,1.96
2023-02-09T15:51:27.321Z,1.94
2023-02-09T15:53:07.106Z,1.92
2023-02-09T15:54:46.856Z,1.89
2023-02-09T15:56:26.626Z,1.89
2023-02-09T15:58:06.401Z,1.83
2023-02-09T15:59:46.144Z,1.82
2023-02-09T16:01:25.902Z,1.77
2023-02-09T16:03:05.685Z,1.75
2023-02-09T16:04:45.428Z,1.72
2023-02-09T16:06:25.245Z,1.68
2023-02-09T16:08:05.009Z,1.64
2023-02-09T16:09:44.768Z,1.61
2023-02-09T16:11:24.491Z,1.57
2023-02-09T16:13:04.258Z,1.56
2023-02-09T16:14:44.026Z,1.52
2023-02-09T16:16:23.786Z,1.49
2023-02-09T16:18:03.562Z,1.45
2023-02-09T16:21:23.083Z,1.4
2023-02-09T16:23:02.835Z,1.36
2023-02-09T16:24:42.665Z,1.34
2023-02-09T16:26:22.364Z,1.32
2023-02-09T16:28:02.148Z,1.31
2023-02-09T16:29:41.896Z,1.29
2023-02-09T16:31:21.656Z,1.27
2023-02-09T16:33:01.429Z,1.26
2023-02-09T16:34:41.196Z,1.25
2023-02-09T16:36:20.955Z,1.23
2023-02-09T16:38:00.734Z,1.21
2023-02-09T16:39:40.490Z,1.17
2023-02-09T16:41:20.257Z,1.17
2023-02-09T16:43:00.027Z,1.16
2023-02-09T16:44:39.778Z,1.15
2023-02-09T16:46:19.532Z,1.15
2023-02-09T16:47:59.314Z,1.12
2023-02-09T16:49:39.062Z,1.11
2023-02-09T16:51:18.834Z,1.07
2023-02-09T16:52:58.621Z,1.07
2023-02-09T16:54:38.369Z,1.04
2023-02-09T16:56:18.134Z,1.03
2023-02-09T16:57:57.876Z,1.02
2023-02-09T16:59:37.647Z,1.01
2023-02-09T17:01:17.412Z,1
2023-02-09T17:02:57.206Z,0.95
2023-02-09T17:04:36.948Z,0.93
2023-02-09T17:06:16.701Z,0.91
2023-02-09T17:07:56.486Z,0.87
2023-02-09T17:09:36.235Z,0.86
2023-02-09T17:11:15.998Z,0.82
2023-02-09T17:12:55.769Z,0.8
2023-02-09T17:14:35.522Z,0.78
2023-02-09T17:16:15.293Z,0.75
2023-02-09T17:17:55.066Z,0.74
2023-02-09T17:19:34.839Z,0.73
2023-02-09T17:21:14.588Z,0.71
2023-02-09T17:22:54.347Z,0.68
2023-02-09T17:24:34.125Z,0.69
2023-02-09T17:26:13.884Z,0.68
2023-02-09T17:27:53.638Z,0.69
2023-02-09T17:29:33.435Z,0.65
2023-02-09T17:31:13.170Z,0.64
2023-02-09T17:32:52.933Z,0.63
2023-02-09T17:34:32.691Z,0.61
2023-02-09T17:36:12.445Z,0.58
2023-02-09T17:37:52.233Z,0.55
2023-02-09T17:39:32.004Z,0.51
2023-02-09T17:41:11.765Z,0.51
2023-02-09T17:42:51.516Z,0.46
2023-02-09T17:44:31.270Z,0.44
2023-02-09T17:46:11.041Z,0.43
2023-02-09T17:47:50.810Z,0.41
2023-02-09T17:49:30.560Z,0.37
2023-02-09T17:51:10.351Z,0.37
2023-02-09T17:52:50.102Z,0.35
2023-02-09T17:54:29.848Z,0.31
2023-02-09T17:56:09.621Z,0.31
2023-02-09T17:57:49.395Z,0.29
2023-02-09T17:59:29.158Z,0.26
2023-02-09T18:01:08.913Z,0.23
2023-02-09T18:02:48.674Z,0.21
2023-02-09T18:04:28.467Z,0.17
2023-02-09T18:06:08.206Z,0.19
2023-02-09T18:07:47.975Z,0.16
2023-02-09T18:09:27.742Z,0.14
2023-02-09T18:11:07.499Z,0.11
2023-02-09T18:12:47.275Z,0.09
2023-02-09T18:14:27.055Z,0.05
2023-02-09T18:16:06.797Z,0.07
2023-02-09T18:17:46.557Z,0.06
2023-02-09T18:19:26.314Z,0.03
2023-02-09T18:21:06.102Z,0.01
2023-02-09T18:22:45.841Z,0.01
2023-02-09T18:24:25.604Z,0
2023-02-09T18:26:05.359Z,0
2023-02-09T18:27:45.137Z,-0.02
2023-02-09T18:29:24.891Z,-0.08
2023-02-09T18:31:04.667Z,-0.1
2023-02-09T18:32:44.453Z,-0.15
2023-02-09T18:34:24.191Z,-0.16
2023-02-09T18:36:03.949Z,-0.21
2023-02-09T18:37:43.722Z,-0.23
2023-02-09T18:39:23.524Z,-0.23
2023-02-09T18:41:03.264Z,-0.27
2023-02-09T18:42:42.993Z,-0.33
2023-02-09T18:44:22.780Z,-0.31
2023-02-09T18:46:02.570Z,-0.33
2023-02-09T18:47:42.299Z,-0.34
2023-02-09T18:49:22.052Z,-0.36
2023-02-09T18:51:01.843Z,-0.4
2023-02-09T18:52:41.590Z,-0.42
2023-02-09T18:54:21.351Z,-0.46
2023-02-09T18:56:01.114Z,-0.46
2023-02-09T18:57:40.884Z,-0.44
2023-02-09T18:59:20.649Z,-0.44
2023-02-09T19:01:00.454Z,-0.46
2023-02-09T19:02:40.161Z,-0.47
2023-02-09T19:04:19.954Z,-0.48
2023-02-09T19:05:59.709Z,-0.53
2023-02-09T19:07:39.580Z,-0.53
2023-02-09T19:09:19.244Z,-0.54
2023-02-09T19:10:58.995Z,-0.55
2023-02-09T19:12:38.762Z,-0.56
2023-02-09T19:14:18.564Z,-0.56
2023-02-09T19:15:58.298Z,-0.55
2023-02-09T19:17:38.065Z,-0.58
2023-02-09T19:19:17.891Z,-0.58
2023-02-09T19:20:57.610Z,-0.58
2023-02-09T19:22:37.336Z,-0.6
2023-02-09T19:24:17.148Z,-0.62
2023-02-09T19:25:56.862Z,-0.62
2023-02-09T19:27:36.634Z,-0.65
2023-02-09T19:29:16.391Z,-0.65
2023-02-09T19:30:56.167Z,-0.67
2023-02-09T19:32:35.932Z,-0.69
2023-02-09T19:34:15.681Z,-0.69
2023-02-09T19:35:55.452Z,-0.73
2023-02-09T19:37:35.222Z,-0.73
2023-02-09T19:39:14.969Z,-0.75
2023-02-09T19:40:54.750Z,-0.78
2023-02-09T19:42:34.693Z,-0.79
2023-02-09T19:44:14.282Z,-0.83
2023-02-09T19:45:54.046Z,-0.84
2023-02-09T19:47:33.797Z,-0.87
2023-02-09T19:49:13.557Z,-0.88
2023-02-09T19:50:53.334Z,-0.9
2023-02-09T19:52:33.080Z,-0.93
2023-02-09T19:54:12.932Z,-0.96
2023-02-09T19:55:52.741Z,-0.98
2023-02-09T19:57:32.372Z,-0.97
2023-02-09T19:59:12.143Z,-1
2023-02-09T20:00:51.907Z,-0.99
2023-02-09T20:02:31.682Z,-1
2023-02-09T20:04:11.436Z,-1.02
2023-02-09T20:05:51.231Z,-1.04
2023-02-09T20:07:31.005Z,-1.08
2023-02-09T20:09:10.720Z,-1.08
2023-02-09T20:10:50.539Z,-1.11
2023-02-09T20:12:30.462Z,-1.12
2023-02-09T20:14:10.185Z,-1.15
2023-02-09T20:15:49.982Z,-1.15
2023-02-09T20:17:29.705Z,-1.15
2023-02-09T20:19:09.478Z,-1.15
2023-02-09T20:20:49.209Z,-1.16
2023-02-09T20:22:29.069Z,-1.18
2023-02-09T20:24:08.688Z,-1.19
2023-02-09T20:25:48.498Z,-1.22
2023-02-09T20:27:28.354Z,-1.25
2023-02-09T20:29:08.055Z,-1.25
2023-02-09T20:30:47.711Z,-1.21
2023-02-09T20:32:27.529Z,-1.08
2023-02-09T20:34:07.399Z,-0.97
2023-02-09T20:35:46.949Z,-0.93
2023-02-09T20:37:26.878Z,-0.92
2023-02-09T20:39:06.626Z,-0.91
2023-02-09T20:40:46.412Z,-0.86
2023-02-09T20:42:26.208Z,-0.9
2023-02-09T20:44:05.873Z,-0.93
2023-02-09T20:45:45.684Z,-0.92
2023-02-09T20:47:25.423Z,-0.94
2023-02-09T20:49:05.247Z,-0.94
2023-02-09T20:50:45.047Z,-0.96
2023-02-09T20:52:24.684Z,-1
2023-02-09T20:54:04.423Z,-1.04
2023-02-09T20:55:44.287Z,-1.08
2023-02-09T20:57:24.047Z,-1.09
2023-02-09T20:59:03.708Z,-1.12
2023-02-09T21:00:43.595Z,-1.18
2023-02-09T21:02:23.282Z,-1.21
2023-02-09T21:04:03.048Z,-1.23
2023-02-09T21:05:42.903Z,-1.23
2023-02-09T21:07:22.634Z,-1.28
2023-02-09T21:09:02.418Z,-1.29
2023-02-09T21:10:42.113Z,-1.31
2023-02-09T21:12:21.779Z,-1.3
2023-02-09T21:14:01.683Z,-1.31
2023-02-09T21:15:41.360Z,-1.33
2023-02-09T21:17:21.198Z,-1.36
2023-02-09T21:19:00.804Z,-1.42
2023-02-09T21:20:40.577Z,-1.44
2023-02-09T21:22:20.499Z,-1.48
2023-02-09T21:24:00.261Z,-1.5
2023-02-09T21:25:39.872Z,-1.53
2023-02-09T21:27:19.812Z,-1.53
2023-02-09T21:28:59.511Z,-1.56
2023-02-09T21:30:39.154Z,-1.58
2023-02-09T21:32:18.965Z,-1.6
2023-02-09T21:33:58.766Z,-1.63
2023-02-09T21:35:38.459Z,-1.65
2023-02-09T21:37:18.290Z,-1.66
2023-02-09T21:38:58.143Z,-1.68
2023-02-09T21:40:37.824Z,-1.71
2023-02-09T21:42:17.505Z,-1.72
2023-02-09T21:43:57.470Z,-1.72
2023-02-09T21:45:37.195Z,-1.79
2023-02-09T21:47:16.776Z,-1.79
2023-02-09T21:48:56.676Z,-1.79